sensor_id;sensor_type;location;lat;lon;timestamp;temperature;humidity
70300;HTU21D;57704;51.112;5.878;2023-08-06T00:01:33;17.28;77.43
70300;HTU21D;57704;51.112;5.878;2023-08-06T00:03:59;17.24;77.55
70300;HTU21D;57704;51.112;5.878;2023-08-06T00:06:26;17.25;77.60
70300;HTU21D;57704;51.112;5.878;2023-08-06T00:08:52;17.26;77.67
70300;HTU21D;57704;51.112;5.878;2023-08-06T00:11:18;17.26;77.68
70300;HTU21D;57704;51.112;5.878;2023-08-06T00:13:44;17.24;77.60
70300;HTU21D;57704;51.112;5.878;2023-08-06T00:16:11;17.23;77.71
70300;HTU21D;57704;51.112;5.878;2023-08-06T00:18:38;17.24;77.71
70300;HTU21D;57704;51.112;5.878;2023-08-06T00:21:04;17.30;77.63
70300;HTU21D;57704;51.112;5.878;2023-08-06T00:23:30;17.32;77.53
70300;HTU21D;57704;51.112;5.878;2023-08-06T00:25:56;17.30;77.40
70300;HTU21D;57704;51.112;5.878;2023-08-06T00:28:21;17.28;77.43
70300;HTU21D;57704;51.112;5.878;2023-08-06T00:30:53;17.29;77.49
70300;HTU21D;57704;51.112;5.878;2023-08-06T00:33:19;17.33;77.31
70300;HTU21D;57704;51.112;5.878;2023-08-06T00:35:46;17.33;77.22
70300;HTU21D;57704;51.112;5.878;2023-08-06T00:38:12;17.35;77.08
70300;HTU21D;57704;51.112;5.878;2023-08-06T00:40:38;17.38;76.90
70300;HTU21D;57704;51.112;5.878;2023-08-06T00:43:03;17.40;76.76
70300;HTU21D;57704;51.112;5.878;2023-08-06T00:45:33;17.41;76.55
70300;HTU21D;57704;51.112;5.878;2023-08-06T00:48:00;17.39;76.47
70300;HTU21D;57704;51.112;5.878;2023-08-06T00:50:27;17.39;76.44
70300;HTU21D;57704;51.112;5.878;2023-08-06T00:52:53;17.39;76.42
70300;HTU21D;57704;51.112;5.878;2023-08-06T00:55:19;17.38;76.34
70300;HTU21D;57704;51.112;5.878;2023-08-06T00:57:45;17.35;76.40
70300;HTU21D;57704;51.112;5.878;2023-08-06T01:00:12;17.32;76.43
70300;HTU21D;57704;51.112;5.878;2023-08-06T01:02:38;17.32;76.38
70300;HTU21D;57704;51.112;5.878;2023-08-06T01:05:04;17.30;76.29
70300;HTU21D;57704;51.112;5.878;2023-08-06T01:07:37;17.30;76.24
70300;HTU21D;57704;51.112;5.878;2023-08-06T01:10:27;17.28;76.10
70300;HTU21D;57704;51.112;5.878;2023-08-06T01:15:42;17.20;76.16
70300;HTU21D;57704;51.112;5.878;2023-08-06T01:18:10;17.17;76.15
70300;HTU21D;57704;51.112;5.878;2023-08-06T01:20:36;17.14;76.21
70300;HTU21D;57704;51.112;5.878;2023-08-06T01:23:01;17.08;76.37
70300;HTU21D;57704;51.112;5.878;2023-08-06T01:28:32;17.03;76.58
70300;HTU21D;57704;51.112;5.878;2023-08-06T01:31:03;16.99;76.81
70300;HTU21D;57704;51.112;5.878;2023-08-06T01:33:32;17.01;76.73
70300;HTU21D;57704;51.112;5.878;2023-08-06T01:36:01;16.99;76.64
70300;HTU21D;57704;51.112;5.878;2023-08-06T01:38:29;16.96;76.67
70300;HTU21D;57704;51.112;5.878;2023-08-06T01:40:55;16.94;76.64
70300;HTU21D;57704;51.112;5.878;2023-08-06T01:43:20;16.86;76.80
70300;HTU21D;57704;51.112;5.878;2023-08-06T01:45:46;16.84;77.02
70300;HTU21D;57704;51.112;5.878;2023-08-06T01:48:12;16.85;77.06
70300;HTU21D;57704;51.112;5.878;2023-08-06T01:50:38;16.88;77.07
70300;HTU21D;57704;51.112;5.878;2023-08-06T01:53:04;16.92;77.02
70300;HTU21D;57704;51.112;5.878;2023-08-06T01:55:30;16.96;76.94
70300;HTU21D;57704;51.112;5.878;2023-08-06T01:57:57;16.98;76.98
70300;HTU21D;57704;51.112;5.878;2023-08-06T02:00:23;17.00;76.92
70300;HTU21D;57704;51.112;5.878;2023-08-06T02:02:50;17.03;76.92
70300;HTU21D;57704;51.112;5.878;2023-08-06T02:05:16;17.05;76.87
70300;HTU21D;57704;51.112;5.878;2023-08-06T02:07:41;17.07;76.82
70300;HTU21D;57704;51.112;5.878;2023-08-06T02:10:07;17.06;76.83
70300;HTU21D;57704;51.112;5.878;2023-08-06T02:12:33;17.08;76.92
70300;HTU21D;57704;51.112;5.878;2023-08-06T02:14:59;17.05;77.13
70300;HTU21D;57704;51.112;5.878;2023-08-06T02:17:25;16.96;77.52
70300;HTU21D;57704;51.112;5.878;2023-08-06T02:19:51;16.87;77.98
70300;HTU21D;57704;51.112;5.878;2023-08-06T02:22:17;16.81;78.26
70300;HTU21D;57704;51.112;5.878;2023-08-06T02:24:43;16.76;78.55
70300;HTU21D;57704;51.112;5.878;2023-08-06T02:27:09;16.71;79.00
70300;HTU21D;57704;51.112;5.878;2023-08-06T02:29:35;16.65;79.12
70300;HTU21D;57704;51.112;5.878;2023-08-06T02:32:01;16.61;79.33
70300;HTU21D;57704;51.112;5.878;2023-08-06T02:34:28;16.58;79.53
70300;HTU21D;57704;51.112;5.878;2023-08-06T02:36:53;16.54;79.90
70300;HTU21D;57704;51.112;5.878;2023-08-06T02:39:19;16.54;79.96
70300;HTU21D;57704;51.112;5.878;2023-08-06T02:41:45;16.54;80.11
70300;HTU21D;57704;51.112;5.878;2023-08-06T02:44:11;16.58;80.17
70300;HTU21D;57704;51.112;5.878;2023-08-06T02:46:36;16.60;80.07
70300;HTU21D;57704;51.112;5.878;2023-08-06T02:49:02;16.59;80.27
70300;HTU21D;57704;51.112;5.878;2023-08-06T02:51:28;16.58;80.32
70300;HTU21D;57704;51.112;5.878;2023-08-06T02:53:54;16.52;80.54
70300;HTU21D;57704;51.112;5.878;2023-08-06T02:56:21;16.47;80.69
70300;HTU21D;57704;51.112;5.878;2023-08-06T02:59:01;16.46;80.96
70300;HTU21D;57704;51.112;5.878;2023-08-06T03:01:43;16.44;81.25
70300;HTU21D;57704;51.112;5.878;2023-08-06T03:04:17;16.42;81.33
70300;HTU21D;57704;51.112;5.878;2023-08-06T03:06:45;16.43;81.42
70300;HTU21D;57704;51.112;5.878;2023-08-06T03:09:11;16.41;81.40
70300;HTU21D;57704;51.112;5.878;2023-08-06T03:11:37;16.37;81.52
70300;HTU21D;57704;51.112;5.878;2023-08-06T03:14:07;16.32;81.54
70300;HTU21D;57704;51.112;5.878;2023-08-06T03:16:34;16.30;81.82
70300;HTU21D;57704;51.112;5.878;2023-08-06T03:19:00;16.32;81.93
70300;HTU21D;57704;51.112;5.878;2023-08-06T03:21:26;16.29;81.75
70300;HTU21D;57704;51.112;5.878;2023-08-06T03:23:52;16.19;82.10
70300;HTU21D;57704;51.112;5.878;2023-08-06T03:26:22;16.15;82.35
70300;HTU21D;57704;51.112;5.878;2023-08-06T03:28:48;16.12;82.49
70300;HTU21D;57704;51.112;5.878;2023-08-06T03:31:14;16.11;82.53
70300;HTU21D;57704;51.112;5.878;2023-08-06T03:33:43;16.03;82.67
70300;HTU21D;57704;51.112;5.878;2023-08-06T03:36:13;15.98;83.05
70300;HTU21D;57704;51.112;5.878;2023-08-06T03:38:41;16.01;83.05
70300;HTU21D;57704;51.112;5.878;2023-08-06T03:41:08;16.01;83.07
70300;HTU21D;57704;51.112;5.878;2023-08-06T03:43:34;16.02;83.16
70300;HTU21D;57704;51.112;5.878;2023-08-06T03:46:01;16.04;83.09
70300;HTU21D;57704;51.112;5.878;2023-08-06T03:48:27;16.04;83.19
70300;HTU21D;57704;51.112;5.878;2023-08-06T03:50:53;16.07;83.36
70300;HTU21D;57704;51.112;5.878;2023-08-06T03:53:19;16.08;83.21
70300;HTU21D;57704;51.112;5.878;2023-08-06T03:55:45;16.12;83.32
70300;HTU21D;57704;51.112;5.878;2023-08-06T03:58:11;16.16;83.35
70300;HTU21D;57704;51.112;5.878;2023-08-06T04:00:36;16.20;83.43
70300;HTU21D;57704;51.112;5.878;2023-08-06T04:03:02;16.24;83.29
70300;HTU21D;57704;51.112;5.878;2023-08-06T04:05:31;16.28;83.19
70300;HTU21D;57704;51.112;5.878;2023-08-06T04:07:58;16.26;83.25
70300;HTU21D;57704;51.112;5.878;2023-08-06T04:10:25;16.30;83.32
70300;HTU21D;57704;51.112;5.878;2023-08-06T04:12:51;16.33;83.37
70300;HTU21D;57704;51.112;5.878;2023-08-06T04:15:16;16.37;83.25
70300;HTU21D;57704;51.112;5.878;2023-08-06T04:17:42;16.37;83.36
70300;HTU21D;57704;51.112;5.878;2023-08-06T04:20:08;16.42;83.45
70300;HTU21D;57704;51.112;5.878;2023-08-06T04:22:34;16.47;83.53
70300;HTU21D;57704;51.112;5.878;2023-08-06T04:25:00;16.55;83.45
70300;HTU21D;57704;51.112;5.878;2023-08-06T04:27:26;16.58;83.29
70300;HTU21D;57704;51.112;5.878;2023-08-06T04:29:52;16.55;83.37
70300;HTU21D;57704;51.112;5.878;2023-08-06T04:32:18;16.55;83.58
70300;HTU21D;57704;51.112;5.878;2023-08-06T04:34:48;16.55;83.58
70300;HTU21D;57704;51.112;5.878;2023-08-06T04:37:14;16.51;83.90
70300;HTU21D;57704;51.112;5.878;2023-08-06T04:39:40;16.47;84.15
70300;HTU21D;57704;51.112;5.878;2023-08-06T04:42:06;16.44;84.35
70300;HTU21D;57704;51.112;5.878;2023-08-06T04:44:32;16.42;84.40
70300;HTU21D;57704;51.112;5.878;2023-08-06T04:46:57;16.41;84.57
70300;HTU21D;57704;51.112;5.878;2023-08-06T04:49:24;16.35;84.73
70300;HTU21D;57704;51.112;5.878;2023-08-06T04:51:50;16.33;84.78
70300;HTU21D;57704;51.112;5.878;2023-08-06T04:54:16;16.29;85.09
70300;HTU21D;57704;51.112;5.878;2023-08-06T04:56:41;16.29;85.19
70300;HTU21D;57704;51.112;5.878;2023-08-06T04:59:07;16.32;85.21
70300;HTU21D;57704;51.112;5.878;2023-08-06T05:01:33;16.35;85.31
70300;HTU21D;57704;51.112;5.878;2023-08-06T05:03:59;16.42;85.41
70300;HTU21D;57704;51.112;5.878;2023-08-06T05:06:25;16.44;85.21
70300;HTU21D;57704;51.112;5.878;2023-08-06T05:08:50;16.45;85.35
70300;HTU21D;57704;51.112;5.878;2023-08-06T05:11:16;16.50;85.31
70300;HTU21D;57704;51.112;5.878;2023-08-06T05:13:42;16.50;85.30
70300;HTU21D;57704;51.112;5.878;2023-08-06T05:16:08;16.57;85.47
70300;HTU21D;57704;51.112;5.878;2023-08-06T05:18:33;16.63;85.38
70300;HTU21D;57704;51.112;5.878;2023-08-06T05:21:00;16.65;85.25
70300;HTU21D;57704;51.112;5.878;2023-08-06T05:23:26;16.66;85.50
70300;HTU21D;57704;51.112;5.878;2023-08-06T05:25:52;16.72;85.48
70300;HTU21D;57704;51.112;5.878;2023-08-06T05:28:17;16.70;85.36
70300;HTU21D;57704;51.112;5.878;2023-08-06T05:30:43;16.69;85.45
70300;HTU21D;57704;51.112;5.878;2023-08-06T05:33:09;16.65;85.51
70300;HTU21D;57704;51.112;5.878;2023-08-06T05:35:35;16.62;85.76
70300;HTU21D;57704;51.112;5.878;2023-08-06T05:38:00;16.64;86.06
70300;HTU21D;57704;51.112;5.878;2023-08-06T05:40:26;16.69;86.11
70300;HTU21D;57704;51.112;5.878;2023-08-06T05:42:55;16.74;86.20
70300;HTU21D;57704;51.112;5.878;2023-08-06T05:45:21;16.76;86.11
70300;HTU21D;57704;51.112;5.878;2023-08-06T05:47:50;16.75;86.23
70300;HTU21D;57704;51.112;5.878;2023-08-06T05:50:16;16.77;86.30
70300;HTU21D;57704;51.112;5.878;2023-08-06T05:52:42;16.82;86.48
70300;HTU21D;57704;51.112;5.878;2023-08-06T05:55:08;16.79;86.35
70300;HTU21D;57704;51.112;5.878;2023-08-06T05:57:34;16.79;86.48
70300;HTU21D;57704;51.112;5.878;2023-08-06T06:00:01;16.80;86.80
70300;HTU21D;57704;51.112;5.878;2023-08-06T06:02:38;16.86;87.06
70300;HTU21D;57704;51.112;5.878;2023-08-06T06:05:04;16.91;87.19
70300;HTU21D;57704;51.112;5.878;2023-08-06T06:07:30;16.93;87.24
70300;HTU21D;57704;51.112;5.878;2023-08-06T06:09:56;16.93;87.25
70300;HTU21D;57704;51.112;5.878;2023-08-06T06:12:21;16.93;87.36
70300;HTU21D;57704;51.112;5.878;2023-08-06T06:14:48;16.92;87.44
70300;HTU21D;57704;51.112;5.878;2023-08-06T06:17:13;16.90;87.55
70300;HTU21D;57704;51.112;5.878;2023-08-06T06:19:39;16.93;87.76
70300;HTU21D;57704;51.112;5.878;2023-08-06T06:22:05;16.96;87.71
70300;HTU21D;57704;51.112;5.878;2023-08-06T06:24:31;16.99;87.77
70300;HTU21D;57704;51.112;5.878;2023-08-06T06:26:57;16.99;87.79
70300;HTU21D;57704;51.112;5.878;2023-08-06T06:29:23;17.03;87.90
70300;HTU21D;57704;51.112;5.878;2023-08-06T06:31:49;17.03;87.87
70300;HTU21D;57704;51.112;5.878;2023-08-06T06:34:15;17.04;87.98
70300;HTU21D;57704;51.112;5.878;2023-08-06T06:36:41;17.04;87.82
70300;HTU21D;57704;51.112;5.878;2023-08-06T06:39:07;16.99;87.87
70300;HTU21D;57704;51.112;5.878;2023-08-06T06:41:33;16.93;87.90
70300;HTU21D;57704;51.112;5.878;2023-08-06T06:44:07;16.90;88.02
70300;HTU21D;57704;51.112;5.878;2023-08-06T06:46:33;16.86;88.04
70300;HTU21D;57704;51.112;5.878;2023-08-06T06:48:59;16.80;87.90
70300;HTU21D;57704;51.112;5.878;2023-08-06T06:51:25;16.70;88.15
70300;HTU21D;57704;51.112;5.878;2023-08-06T06:53:50;16.69;88.38
70300;HTU21D;57704;51.112;5.878;2023-08-06T06:56:16;16.63;88.45
70300;HTU21D;57704;51.112;5.878;2023-08-06T06:58:42;16.63;88.73
70300;HTU21D;57704;51.112;5.878;2023-08-06T07:01:09;16.64;88.70
70300;HTU21D;57704;51.112;5.878;2023-08-06T07:03:36;16.63;88.79
70300;HTU21D;57704;51.112;5.878;2023-08-06T07:06:02;16.61;88.96
70300;HTU21D;57704;51.112;5.878;2023-08-06T07:08:29;16.65;89.09
70300;HTU21D;57704;51.112;5.878;2023-08-06T07:11:05;16.71;89.31
70300;HTU21D;57704;51.112;5.878;2023-08-06T07:13:33;16.75;89.16
70300;HTU21D;57704;51.112;5.878;2023-08-06T07:15:59;16.77;89.27
70300;HTU21D;57704;51.112;5.878;2023-08-06T07:18:25;16.82;89.28
70300;HTU21D;57704;51.112;5.878;2023-08-06T07:20:53;16.86;89.15
70300;HTU21D;57704;51.112;5.878;2023-08-06T07:23:21;16.84;89.06
70300;HTU21D;57704;51.112;5.878;2023-08-06T07:25:47;16.82;89.22
70300;HTU21D;57704;51.112;5.878;2023-08-06T07:28:14;16.85;89.27
70300;HTU21D;57704;51.112;5.878;2023-08-06T07:30:41;16.87;89.26
70300;HTU21D;57704;51.112;5.878;2023-08-06T07:33:07;16.90;89.31
70300;HTU21D;57704;51.112;5.878;2023-08-06T07:35:34;16.88;89.29
70300;HTU21D;57704;51.112;5.878;2023-08-06T07:38:00;16.89;89.28
70300;HTU21D;57704;51.112;5.878;2023-08-06T07:40:28;16.91;89.41
70300;HTU21D;57704;51.112;5.878;2023-08-06T07:42:54;16.98;89.54
70300;HTU21D;57704;51.112;5.878;2023-08-06T07:45:20;17.03;89.54
70300;HTU21D;57704;51.112;5.878;2023-08-06T07:47:46;17.05;89.31
70300;HTU21D;57704;51.112;5.878;2023-08-06T07:50:13;17.02;89.22
70300;HTU21D;57704;51.112;5.878;2023-08-06T07:52:39;16.90;88.78
70300;HTU21D;57704;51.112;5.878;2023-08-06T07:55:05;16.66;88.33
70300;HTU21D;57704;51.112;5.878;2023-08-06T07:57:32;16.34;88.50
70300;HTU21D;57704;51.112;5.878;2023-08-06T08:00:03;16.13;88.73
70300;HTU21D;57704;51.112;5.878;2023-08-06T08:02:38;16.00;89.06
70300;HTU21D;57704;51.112;5.878;2023-08-06T08:05:04;15.91;89.25
70300;HTU21D;57704;51.112;5.878;2023-08-06T08:07:31;15.92;89.66
70300;HTU21D;57704;51.112;5.878;2023-08-06T08:09:57;15.91;89.44
70300;HTU21D;57704;51.112;5.878;2023-08-06T08:12:22;15.89;89.58
70300;HTU21D;57704;51.112;5.878;2023-08-06T08:14:48;15.86;89.54
70300;HTU21D;57704;51.112;5.878;2023-08-06T08:17:14;15.84;89.66
70300;HTU21D;57704;51.112;5.878;2023-08-06T08:19:41;15.85;89.63
70300;HTU21D;57704;51.112;5.878;2023-08-06T08:22:07;15.83;89.55
70300;HTU21D;57704;51.112;5.878;2023-08-06T08:24:33;15.80;89.50
70300;HTU21D;57704;51.112;5.878;2023-08-06T08:26:59;15.71;89.36
70300;HTU21D;57704;51.112;5.878;2023-08-06T08:29:25;15.67;89.54
70300;HTU21D;57704;51.112;5.878;2023-08-06T08:31:50;15.59;89.47
70300;HTU21D;57704;51.112;5.878;2023-08-06T08:34:17;15.54;89.56
70300;HTU21D;57704;51.112;5.878;2023-08-06T08:36:43;15.53;89.67
70300;HTU21D;57704;51.112;5.878;2023-08-06T08:39:13;15.52;89.70
70300;HTU21D;57704;51.112;5.878;2023-08-06T08:41:39;15.52;89.79
70300;HTU21D;57704;51.112;5.878;2023-08-06T08:44:09;15.56;89.68
70300;HTU21D;57704;51.112;5.878;2023-08-06T08:46:40;15.53;89.69
70300;HTU21D;57704;51.112;5.878;2023-08-06T08:49:07;15.55;89.76
70300;HTU21D;57704;51.112;5.878;2023-08-06T08:51:33;15.57;89.80
70300;HTU21D;57704;51.112;5.878;2023-08-06T08:54:03;15.61;89.92
70300;HTU21D;57704;51.112;5.878;2023-08-06T08:56:30;15.65;89.76
70300;HTU21D;57704;51.112;5.878;2023-08-06T08:58:56;15.65;89.65
70300;HTU21D;57704;51.112;5.878;2023-08-06T09:01:22;15.61;89.66
70300;HTU21D;57704;51.112;5.878;2023-08-06T09:03:49;15.61;89.71
70300;HTU21D;57704;51.112;5.878;2023-08-06T09:06:17;15.61;89.76
70300;HTU21D;57704;51.112;5.878;2023-08-06T09:08:58;15.60;89.70
70300;HTU21D;57704;51.112;5.878;2023-08-06T09:11:26;15.62;89.86
70300;HTU21D;57704;51.112;5.878;2023-08-06T09:13:54;15.67;89.83
70300;HTU21D;57704;51.112;5.878;2023-08-06T09:16:20;15.68;89.90
70300;HTU21D;57704;51.112;5.878;2023-08-06T09:18:46;15.76;90.17
70300;HTU21D;57704;51.112;5.878;2023-08-06T09:21:15;15.87;90.04
70300;HTU21D;57704;51.112;5.878;2023-08-06T09:23:43;15.93;89.99
70300;HTU21D;57704;51.112;5.878;2023-08-06T09:26:11;15.99;89.78
70300;HTU21D;57704;51.112;5.878;2023-08-06T09:28:38;16.02;89.83
70300;HTU21D;57704;51.112;5.878;2023-08-06T09:31:05;16.12;89.98
70300;HTU21D;57704;51.112;5.878;2023-08-06T09:33:30;16.19;89.54
70300;HTU21D;57704;51.112;5.878;2023-08-06T09:35:56;16.22;89.75
70300;HTU21D;57704;51.112;5.878;2023-08-06T09:38:22;16.33;89.91
70300;HTU21D;57704;51.112;5.878;2023-08-06T09:40:48;16.45;89.76
70300;HTU21D;57704;51.112;5.878;2023-08-06T09:43:14;16.51;89.48
70300;HTU21D;57704;51.112;5.878;2023-08-06T09:45:40;16.58;89.55
70300;HTU21D;57704;51.112;5.878;2023-08-06T09:48:08;16.63;89.50
70300;HTU21D;57704;51.112;5.878;2023-08-06T09:50:37;16.63;89.35
70300;HTU21D;57704;51.112;5.878;2023-08-06T09:53:05;16.67;89.61
70300;HTU21D;57704;51.112;5.878;2023-08-06T09:55:32;16.75;89.62
70300;HTU21D;57704;51.112;5.878;2023-08-06T09:57:59;16.80;89.26
70300;HTU21D;57704;51.112;5.878;2023-08-06T10:00:25;16.74;89.10
70300;HTU21D;57704;51.112;5.878;2023-08-06T10:02:52;16.73;89.18
70300;HTU21D;57704;51.112;5.878;2023-08-06T10:05:22;16.75;89.38
70300;HTU21D;57704;51.112;5.878;2023-08-06T10:07:50;16.78;89.26
70300;HTU21D;57704;51.112;5.878;2023-08-06T10:10:19;16.85;89.34
70300;HTU21D;57704;51.112;5.878;2023-08-06T10:12:50;16.92;89.38
70300;HTU21D;57704;51.112;5.878;2023-08-06T10:15:35;17.00;89.34
70300;HTU21D;57704;51.112;5.878;2023-08-06T10:18:06;17.06;89.32
70300;HTU21D;57704;51.112;5.878;2023-08-06T10:20:35;17.18;89.44
70300;HTU21D;57704;51.112;5.878;2023-08-06T10:23:05;17.14;88.53
70300;HTU21D;57704;51.112;5.878;2023-08-06T10:25:34;16.98;88.76
70300;HTU21D;57704;51.112;5.878;2023-08-06T10:28:07;16.94;88.87
70300;HTU21D;57704;51.112;5.878;2023-08-06T10:30:42;16.88;88.84
70300;HTU21D;57704;51.112;5.878;2023-08-06T10:33:08;16.79;88.83
70300;HTU21D;57704;51.112;5.878;2023-08-06T10:35:46;16.71;88.86
70300;HTU21D;57704;51.112;5.878;2023-08-06T10:38:20;16.61;88.99
70300;HTU21D;57704;51.112;5.878;2023-08-06T10:43:34;16.60;89.47
70300;HTU21D;57704;51.112;5.878;2023-08-06T10:46:03;16.69;89.60
70300;HTU21D;57704;51.112;5.878;2023-08-06T10:48:50;16.71;89.38
70300;HTU21D;57704;51.112;5.878;2023-08-06T10:51:16;16.64;89.17
70300;HTU21D;57704;51.112;5.878;2023-08-06T10:53:45;16.64;89.31
70300;HTU21D;57704;51.112;5.878;2023-08-06T10:56:15;16.58;89.31
70300;HTU21D;57704;51.112;5.878;2023-08-06T10:58:42;16.52;89.28
70300;HTU21D;57704;51.112;5.878;2023-08-06T11:01:08;16.49;89.50
70300;HTU21D;57704;51.112;5.878;2023-08-06T11:03:34;16.49;89.44
70300;HTU21D;57704;51.112;5.878;2023-08-06T11:06:00;16.51;89.63
70300;HTU21D;57704;51.112;5.878;2023-08-06T11:08:32;16.47;89.72
70300;HTU21D;57704;51.112;5.878;2023-08-06T11:13:34;16.62;89.98
70300;HTU21D;57704;51.112;5.878;2023-08-06T11:16:00;16.69;89.79
70300;HTU21D;57704;51.112;5.878;2023-08-06T11:18:26;16.72;89.52
70300;HTU21D;57704;51.112;5.878;2023-08-06T11:20:52;16.69;89.29
70300;HTU21D;57704;51.112;5.878;2023-08-06T11:23:18;16.62;89.55
70300;HTU21D;57704;51.112;5.878;2023-08-06T11:25:44;16.64;89.73
70300;HTU21D;57704;51.112;5.878;2023-08-06T11:28:11;16.70;89.80
70300;HTU21D;57704;51.112;5.878;2023-08-06T11:30:38;16.77;89.88
70300;HTU21D;57704;51.112;5.878;2023-08-06T11:33:07;16.85;89.79
70300;HTU21D;57704;51.112;5.878;2023-08-06T11:35:37;16.90;89.71
70300;HTU21D;57704;51.112;5.878;2023-08-06T11:38:03;16.93;89.44
70300;HTU21D;57704;51.112;5.878;2023-08-06T11:40:31;16.94;89.46
70300;HTU21D;57704;51.112;5.878;2023-08-06T11:42:58;17.02;89.63
70300;HTU21D;57704;51.112;5.878;2023-08-06T11:45:25;17.04;89.12
70300;HTU21D;57704;51.112;5.878;2023-08-06T11:47:52;16.99;89.38
70300;HTU21D;57704;51.112;5.878;2023-08-06T11:50:23;17.03;89.57
70300;HTU21D;57704;51.112;5.878;2023-08-06T11:53:00;17.07;89.60
70300;HTU21D;57704;51.112;5.878;2023-08-06T11:55:27;17.10;89.75
70300;HTU21D;57704;51.112;5.878;2023-08-06T11:57:55;17.16;89.61
70300;HTU21D;57704;51.112;5.878;2023-08-06T12:00:26;17.23;89.72
70300;HTU21D;57704;51.112;5.878;2023-08-06T12:02:52;17.33;89.66
70300;HTU21D;57704;51.112;5.878;2023-08-06T12:05:21;17.36;89.63
70300;HTU21D;57704;51.112;5.878;2023-08-06T12:08:00;17.50;89.87
70300;HTU21D;57704;51.112;5.878;2023-08-06T12:10:28;17.74;89.92
70300;HTU21D;57704;51.112;5.878;2023-08-06T12:12:55;17.84;89.49
70300;HTU21D;57704;51.112;5.878;2023-08-06T12:15:22;17.94;89.33
70300;HTU21D;57704;51.112;5.878;2023-08-06T12:17:48;17.96;89.05
70300;HTU21D;57704;51.112;5.878;2023-08-06T12:20:14;17.97;88.64
70300;HTU21D;57704;51.112;5.878;2023-08-06T12:22:39;17.92;88.78
70300;HTU21D;57704;51.112;5.878;2023-08-06T12:25:08;17.93;88.73
70300;HTU21D;57704;51.112;5.878;2023-08-06T12:27:35;18.00;89.16
70300;HTU21D;57704;51.112;5.878;2023-08-06T12:30:02;18.07;88.86
70300;HTU21D;57704;51.112;5.878;2023-08-06T12:32:30;18.13;88.70
70300;HTU21D;57704;51.112;5.878;2023-08-06T12:34:56;18.14;88.60
70300;HTU21D;57704;51.112;5.878;2023-08-06T12:37:24;18.27;88.73
70300;HTU21D;57704;51.112;5.878;2023-08-06T12:39:49;18.19;87.75
70300;HTU21D;57704;51.112;5.878;2023-08-06T12:42:15;18.06;87.80
70300;HTU21D;57704;51.112;5.878;2023-08-06T12:44:41;17.92;87.73
70300;HTU21D;57704;51.112;5.878;2023-08-06T12:47:07;17.92;88.03
70300;HTU21D;57704;51.112;5.878;2023-08-06T12:49:34;17.93;87.80
70300;HTU21D;57704;51.112;5.878;2023-08-06T12:52:00;17.91;87.35
70300;HTU21D;57704;51.112;5.878;2023-08-06T12:54:27;17.92;87.60
70300;HTU21D;57704;51.112;5.878;2023-08-06T12:56:53;18.08;87.57
70300;HTU21D;57704;51.112;5.878;2023-08-06T12:59:19;18.10;86.90
70300;HTU21D;57704;51.112;5.878;2023-08-06T13:01:45;18.11;86.45
70300;HTU21D;57704;51.112;5.878;2023-08-06T13:04:12;18.11;86.24
70300;HTU21D;57704;51.112;5.878;2023-08-06T13:06:38;18.08;86.28
70300;HTU21D;57704;51.112;5.878;2023-08-06T13:09:09;17.97;86.27
70300;HTU21D;57704;51.112;5.878;2023-08-06T13:11:36;17.99;86.59
70300;HTU21D;57704;51.112;5.878;2023-08-06T13:16:33;18.08;86.57
70300;HTU21D;57704;51.112;5.878;2023-08-06T13:18:59;18.08;86.41
70300;HTU21D;57704;51.112;5.878;2023-08-06T13:21:34;18.14;86.72
70300;HTU21D;57704;51.112;5.878;2023-08-06T13:24:02;18.20;86.40
70300;HTU21D;57704;51.112;5.878;2023-08-06T13:26:31;18.21;86.10
70300;HTU21D;57704;51.112;5.878;2023-08-06T13:28:58;18.19;86.12
70300;HTU21D;57704;51.112;5.878;2023-08-06T13:31:25;18.20;85.98
70300;HTU21D;57704;51.112;5.878;2023-08-06T13:33:52;18.20;85.74
70300;HTU21D;57704;51.112;5.878;2023-08-06T13:36:19;18.23;86.25
70300;HTU21D;57704;51.112;5.878;2023-08-06T13:38:45;18.24;85.93
70300;HTU21D;57704;51.112;5.878;2023-08-06T13:41:11;18.15;85.42
70300;HTU21D;57704;51.112;5.878;2023-08-06T13:43:37;18.08;85.76
70300;HTU21D;57704;51.112;5.878;2023-08-06T13:46:02;18.04;85.15
70300;HTU21D;57704;51.112;5.878;2023-08-06T13:48:28;17.99;85.42
70300;HTU21D;57704;51.112;5.878;2023-08-06T13:50:54;17.99;85.55
70300;HTU21D;57704;51.112;5.878;2023-08-06T13:53:20;18.05;85.72
70300;HTU21D;57704;51.112;5.878;2023-08-06T13:55:45;18.15;85.62
70300;HTU21D;57704;51.112;5.878;2023-08-06T13:58:11;18.20;85.49
70300;HTU21D;57704;51.112;5.878;2023-08-06T14:00:37;18.24;85.16
70300;HTU21D;57704;51.112;5.878;2023-08-06T14:03:03;18.27;84.52
70300;HTU21D;57704;51.112;5.878;2023-08-06T14:05:29;18.27;85.01
70300;HTU21D;57704;51.112;5.878;2023-08-06T14:07:55;18.26;84.29
70300;HTU21D;57704;51.112;5.878;2023-08-06T14:10:20;18.26;84.68
70300;HTU21D;57704;51.112;5.878;2023-08-06T14:12:46;18.40;84.78
70300;HTU21D;57704;51.112;5.878;2023-08-06T14:15:12;18.44;84.38
70300;HTU21D;57704;51.112;5.878;2023-08-06T14:17:37;18.47;84.44
70300;HTU21D;57704;51.112;5.878;2023-08-06T14:20:04;18.43;83.49
70300;HTU21D;57704;51.112;5.878;2023-08-06T14:22:32;18.24;83.81
70300;HTU21D;57704;51.112;5.878;2023-08-06T14:25:02;18.04;84.16
70300;HTU21D;57704;51.112;5.878;2023-08-06T14:27:30;17.89;84.63
70300;HTU21D;57704;51.112;5.878;2023-08-06T14:29:58;17.85;84.91
70300;HTU21D;57704;51.112;5.878;2023-08-06T14:32:27;17.93;85.19
70300;HTU21D;57704;51.112;5.878;2023-08-06T14:34:55;17.99;85.09
70300;HTU21D;57704;51.112;5.878;2023-08-06T14:37:26;18.04;84.91
70300;HTU21D;57704;51.112;5.878;2023-08-06T14:39:54;18.09;84.91
70300;HTU21D;57704;51.112;5.878;2023-08-06T14:42:23;18.08;84.54
70300;HTU21D;57704;51.112;5.878;2023-08-06T14:44:52;18.06;84.65
70300;HTU21D;57704;51.112;5.878;2023-08-06T14:47:21;18.04;84.70
70300;HTU21D;57704;51.112;5.878;2023-08-06T14:49:48;17.98;84.33
70300;HTU21D;57704;51.112;5.878;2023-08-06T14:52:20;17.90;84.21
70300;HTU21D;57704;51.112;5.878;2023-08-06T14:54:51;17.80;84.67
70300;HTU21D;57704;51.112;5.878;2023-08-06T14:57:24;17.78;85.09
70300;HTU21D;57704;51.112;5.878;2023-08-06T14:59:55;17.73;85.13
70300;HTU21D;57704;51.112;5.878;2023-08-06T15:02:22;17.74;85.29
70300;HTU21D;57704;51.112;5.878;2023-08-06T15:04:50;17.76;85.12
70300;HTU21D;57704;51.112;5.878;2023-08-06T15:07:18;17.72;85.13
70300;HTU21D;57704;51.112;5.878;2023-08-06T15:09:46;17.76;85.46
70300;HTU21D;57704;51.112;5.878;2023-08-06T15:12:13;17.88;85.42
70300;HTU21D;57704;51.112;5.878;2023-08-06T15:14:42;17.94;85.15
70300;HTU21D;57704;51.112;5.878;2023-08-06T15:17:09;18.04;84.59
70300;HTU21D;57704;51.112;5.878;2023-08-06T15:19:36;18.04;84.48
70300;HTU21D;57704;51.112;5.878;2023-08-06T15:22:05;18.00;84.27
70300;HTU21D;57704;51.112;5.878;2023-08-06T15:24:34;17.99;84.26
70300;HTU21D;57704;51.112;5.878;2023-08-06T15:27:08;17.91;83.82
70300;HTU21D;57704;51.112;5.878;2023-08-06T15:29:37;17.73;84.10